sensor_id;sensor_type;location;lat;lon;timestamp;P1;durP1;ratioP1;P2;durP2;ratioP2
40917;SDS011;26644;50.248;19.032;2022-09-12T00:01:21;26.40;;;14.57;;
40917;SDS011;26644;50.248;19.032;2022-09-12T00:04:24;41.42;;;16.85;;
40917;SDS011;26644;50.248;19.032;2022-09-12T00:07:28;26.90;;;14.90;;
40917;SDS011;26644;50.248;19.032;2022-09-12T00:10:30;24.05;;;13.93;;
40917;SDS011;26644;50.248;19.032;2022-09-12T00:13:32;23.67;;;13.60;;
40917;SDS011;26644;50.248;19.032;2022-09-12T00:16:34;26.65;;;14.77;;
40917;SDS011;26644;50.248;19.032;2022-09-12T00:19:37;21.80;;;13.45;;
40917;SDS011;26644;50.248;19.032;2022-09-12T00:22:40;24.17;;;13.48;;
40917;SDS011;26644;50.248;19.032;2022-09-12T00:25:42;27.90;;;14.30;;
40917;SDS011;26644;50.248;19.032;2022-09-12T00:28:44;24.55;;;13.35;;
40917;SDS011;26644;50.248;19.032;2022-09-12T00:31:47;24.30;;;13.23;;
40917;SDS011;26644;50.248;19.032;2022-09-12T00:34:49;19.80;;;12.73;;
40917;SDS011;26644;50.248;19.032;2022-09-12T00:37:52;20.88;;;12.43;;
40917;SDS011;26644;50.248;19.032;2022-09-12T00:40:54;19.27;;;12.80;;
40917;SDS011;26644;50.248;19.032;2022-09-12T00:43:56;22.13;;;13.15;;
40917;SDS011;26644;50.248;19.032;2022-09-12T00:46:59;24.10;;;13.05;;
40917;SDS011;26644;50.248;19.032;2022-09-12T00:50:06;22.65;;;12.88;;
40917;SDS011;26644;50.248;19.032;2022-09-12T00:53:14;19.95;;;12.35;;
40917;SDS011;26644;50.248;19.032;2022-09-12T00:56:17;19.08;;;11.88;;
40917;SDS011;26644;50.248;19.032;2022-09-12T00:59:20;21.02;;;12.60;;
40917;SDS011;26644;50.248;19.032;2022-09-12T01:02:24;22.85;;;13.18;;
40917;SDS011;26644;50.248;19.032;2022-09-12T01:05:27;25.20;;;14.50;;
40917;SDS011;26644;50.248;19.032;2022-09-12T01:08:33;33.38;;;19.85;;
40917;SDS011;26644;50.248;19.032;2022-09-12T01:11:37;38.92;;;22.20;;
40917;SDS011;26644;50.248;19.032;2022-09-12T01:14:41;47.45;;;26.27;;
40917;SDS011;26644;50.248;19.032;2022-09-12T01:17:47;51.83;;;28.35;;
40917;SDS011;26644;50.248;19.032;2022-09-12T01:24:36;55.20;;;30.67;;
40917;SDS011;26644;50.248;19.032;2022-09-12T01:27:56;42.38;;;24.60;;
40917;SDS011;26644;50.248;19.032;2022-09-12T01:31:15;33.70;;;19.58;;
40917;SDS011;26644;50.248;19.032;2022-09-12T01:34:22;29.60;;;17.85;;
40917;SDS011;26644;50.248;19.032;2022-09-12T01:37:28;30.88;;;17.98;;
40917;SDS011;26644;50.248;19.032;2022-09-12T01:40:39;35.35;;;20.25;;
40917;SDS011;26644;50.248;19.032;2022-09-12T01:43:46;36.50;;;22.42;;
40917;SDS011;26644;50.248;19.032;2022-09-12T01:46:56;52.17;;;28.65;;
40917;SDS011;26644;50.248;19.032;2022-09-12T01:50:08;54.92;;;30.73;;
40917;SDS011;26644;50.248;19.032;2022-09-12T01:53:18;53.13;;;28.85;;
40917;SDS011;26644;50.248;19.032;2022-09-12T01:56:24;54.80;;;26.20;;
40917;SDS011;26644;50.248;19.032;2022-09-12T01:59:28;43.25;;;25.25;;
40917;SDS011;26644;50.248;19.032;2022-09-12T02:02:36;41.65;;;22.85;;
40917;SDS011;26644;50.248;19.032;2022-09-12T02:05:41;33.97;;;19.08;;
40917;SDS011;26644;50.248;19.032;2022-09-12T02:08:49;35.50;;;17.38;;
40917;SDS011;26644;50.248;19.032;2022-09-12T02:11:58;31.10;;;17.50;;
40917;SDS011;26644;50.248;19.032;2022-09-12T02:15:02;29.65;;;16.58;;
40917;SDS011;26644;50.248;19.032;2022-09-12T02:18:10;32.47;;;16.38;;
40917;SDS011;26644;50.248;19.032;2022-09-12T02:21:14;29.20;;;16.38;;
40917;SDS011;26644;50.248;19.032;2022-09-12T02:24:19;26.02;;;15.48;;
40917;SDS011;26644;50.248;19.032;2022-09-12T02:27:23;26.85;;;16.13;;
40917;SDS011;26644;50.248;19.032;2022-09-12T02:30:28;30.17;;;16.00;;
40917;SDS011;26644;50.248;19.032;2022-09-12T02:33:39;27.50;;;16.48;;
40917;SDS011;26644;50.248;19.032;2022-09-12T02:36:47;23.80;;;14.20;;
40917;SDS011;26644;50.248;19.032;2022-09-12T02:39:55;24.05;;;14.23;;
40917;SDS011;26644;50.248;19.032;2022-09-12T02:42:59;22.42;;;14.30;;
40917;SDS011;26644;50.248;19.032;2022-09-12T02:46:02;21.95;;;12.93;;
40917;SDS011;26644;50.248;19.032;2022-09-12T02:49:06;21.23;;;13.25;;
40917;SDS011;26644;50.248;19.032;2022-09-12T02:52:08;18.90;;;12.80;;
40917;SDS011;26644;50.248;19.032;2022-09-12T02:55:10;22.85;;;14.07;;
40917;SDS011;26644;50.248;19.032;2022-09-12T02:58:14;22.65;;;13.18;;
40917;SDS011;26644;50.248;19.032;2022-09-12T03:01:21;22.23;;;13.52;;
40917;SDS011;26644;50.248;19.032;2022-09-12T03:04:39;21.92;;;13.82;;
40917;SDS011;26644;50.248;19.032;2022-09-12T03:07:56;28.52;;;18.02;;
40917;SDS011;26644;50.248;19.032;2022-09-12T03:11:07;39.50;;;19.50;;
40917;SDS011;26644;50.248;19.032;2022-09-12T03:14:20;36.63;;;19.75;;
40917;SDS011;26644;50.248;19.032;2022-09-12T03:17:33;39.78;;;21.02;;
40917;SDS011;26644;50.248;19.032;2022-09-12T03:20:47;39.17;;;22.00;;
40917;SDS011;26644;50.248;19.032;2022-09-12T03:23:58;47.58;;;23.65;;
40917;SDS011;26644;50.248;19.032;2022-09-12T03:27:10;45.33;;;23.55;;
40917;SDS011;26644;50.248;19.032;2022-09-12T03:30:16;44.58;;;23.75;;
40917;SDS011;26644;50.248;19.032;2022-09-12T03:33:19;41.78;;;23.17;;
40917;SDS011;26644;50.248;19.032;2022-09-12T03:36:24;48.03;;;23.90;;
40917;SDS011;26644;50.248;19.032;2022-09-12T03:39:27;44.60;;;24.20;;
40917;SDS011;26644;50.248;19.032;2022-09-12T03:42:29;53.53;;;27.00;;
40917;SDS011;26644;50.248;19.032;2022-09-12T03:45:31;51.83;;;25.60;;
40917;SDS011;26644;50.248;19.032;2022-09-12T03:48:32;51.33;;;27.70;;
40917;SDS011;26644;50.248;19.032;2022-09-12T03:51:36;49.42;;;25.95;;
40917;SDS011;26644;50.248;19.032;2022-09-12T03:54:38;52.08;;;25.00;;
40917;SDS011;26644;50.248;19.032;2022-09-12T03:57:40;44.45;;;23.52;;
40917;SDS011;26644;50.248;19.032;2022-09-12T04:00:41;44.72;;;24.13;;
40917;SDS011;26644;50.248;19.032;2022-09-12T04:03:44;39.78;;;22.75;;
40917;SDS011;26644;50.248;19.032;2022-09-12T04:06:48;34.95;;;20.83;;
40917;SDS011;26644;50.248;19.032;2022-09-12T04:09:50;37.15;;;19.88;;
40917;SDS011;26644;50.248;19.032;2022-09-12T04:12:52;32.20;;;18.95;;
40917;SDS011;26644;50.248;19.032;2022-09-12T04:15:55;31.42;;;18.27;;
40917;SDS011;26644;50.248;19.032;2022-09-12T04:18:57;28.10;;;17.85;;
40917;SDS011;26644;50.248;19.032;2022-09-12T04:22:00;33.03;;;17.85;;
40917;SDS011;26644;50.248;19.032;2022-09-12T04:25:02;35.03;;;18.42;;
40917;SDS011;26644;50.248;19.032;2022-09-12T04:28:05;31.77;;;18.08;;
40917;SDS011;26644;50.248;19.032;2022-09-12T04:31:07;31.85;;;18.52;;
40917;SDS011;26644;50.248;19.032;2022-09-12T04:34:11;31.70;;;19.00;;
40917;SDS011;26644;50.248;19.032;2022-09-12T04:37:15;28.42;;;17.35;;
40917;SDS011;26644;50.248;19.032;2022-09-12T04:40:17;29.60;;;16.55;;
40917;SDS011;26644;50.248;19.032;2022-09-12T04:43:18;28.27;;;16.65;;
40917;SDS011;26644;50.248;19.032;2022-09-12T04:46:20;28.42;;;16.63;;
40917;SDS011;26644;50.248;19.032;2022-09-12T04:49:22;360.80;;;47.30;;
40917;SDS011;26644;50.248;19.032;2022-09-12T04:52:25;28.42;;;14.90;;
40917;SDS011;26644;50.248;19.032;2022-09-12T04:55:27;27.27;;;15.60;;
40917;SDS011;26644;50.248;19.032;2022-09-12T04:58:29;25.92;;;14.63;;
40917;SDS011;26644;50.248;19.032;2022-09-12T05:01:32;25.35;;;16.70;;
40917;SDS011;26644;50.248;19.032;2022-09-12T05:04:34;59.75;;;16.92;;
40917;SDS011;26644;50.248;19.032;2022-09-12T05:07:37;35.97;;;28.42;;
40917;SDS011;26644;50.248;19.032;2022-09-12T05:10:39;32.95;;;17.77;;
40917;SDS011;26644;50.248;19.032;2022-09-12T05:13:41;29.23;;;15.98;;
40917;SDS011;26644;50.248;19.032;2022-09-12T05:16:43;26.95;;;15.75;;
40917;SDS011;26644;50.248;19.032;2022-09-12T05:19:46;21.60;;;15.68;;
40917;SDS011;26644;50.248;19.032;2022-09-12T05:22:50;32.72;;;20.13;;
40917;SDS011;26644;50.248;19.032;2022-09-12T05:25:52;29.20;;;19.13;;
40917;SDS011;26644;50.248;19.032;2022-09-12T05:28:55;26.38;;;18.95;;
40917;SDS011;26644;50.248;19.032;2022-09-12T05:31:57;27.38;;;19.15;;
40917;SDS011;26644;50.248;19.032;2022-09-12T05:34:59;28.48;;;19.58;;
40917;SDS011;26644;50.248;19.032;2022-09-12T05:38:02;32.75;;;20.85;;
40917;SDS011;26644;50.248;19.032;2022-09-12T05:41:04;30.90;;;21.30;;
40917;SDS011;26644;50.248;19.032;2022-09-12T05:44:10;25.50;;;18.10;;
40917;SDS011;26644;50.248;19.032;2022-09-12T05:47:14;28.15;;;16.58;;
40917;SDS011;26644;50.248;19.032;2022-09-12T05:50:16;28.15;;;17.08;;
40917;SDS011;26644;50.248;19.032;2022-09-12T05:53:19;27.70;;;19.50;;
40917;SDS011;26644;50.248;19.032;2022-09-12T05:56:22;29.27;;;19.65;;
40917;SDS011;26644;50.248;19.032;2022-09-12T05:59:25;25.92;;;17.58;;
40917;SDS011;26644;50.248;19.032;2022-09-12T06:02:27;29.33;;;16.67;;
40917;SDS011;26644;50.248;19.032;2022-09-12T06:05:29;28.27;;;19.02;;
40917;SDS011;26644;50.248;19.032;2022-09-12T06:08:34;22.75;;;17.05;;
40917;SDS011;26644;50.248;19.032;2022-09-12T06:11:37;20.38;;;15.00;;
40917;SDS011;26644;50.248;19.032;2022-09-12T06:14:41;21.38;;;16.13;;
40917;SDS011;26644;50.248;19.032;2022-09-12T06:17:42;21.70;;;15.65;;
40917;SDS011;26644;50.248;19.032;2022-09-12T06:20:44;22.38;;;13.90;;
40917;SDS011;26644;50.248;19.032;2022-09-12T06:23:47;17.38;;;11.90;;
40917;SDS011;26644;50.248;19.032;2022-09-12T06:26:50;14.63;;;9.40;;
40917;SDS011;26644;50.248;19.032;2022-09-12T06:29:52;12.77;;;8.98;;
40917;SDS011;26644;50.248;19.032;2022-09-12T06:32:54;14.98;;;6.97;;
40917;SDS011;26644;50.248;19.032;2022-09-12T06:36:00;11.52;;;5.65;;
40917;SDS011;26644;50.248;19.032;2022-09-12T06:39:05;8.98;;;5.78;;
40917;SDS011;26644;50.248;19.032;2022-09-12T06:42:09;10.00;;;7.63;;
40917;SDS011;26644;50.248;19.032;2022-09-12T06:45:12;10.30;;;8.50;;
40917;SDS011;26644;50.248;19.032;2022-09-12T06:48:15;13.18;;;7.55;;
40917;SDS011;26644;50.248;19.032;2022-09-12T06:51:18;16.05;;;9.73;;
40917;SDS011;26644;50.248;19.032;2022-09-12T06:54:21;13.07;;;8.00;;
40917;SDS011;26644;50.248;19.032;2022-09-12T06:57:25;14.90;;;6.30;;
40917;SDS011;26644;50.248;19.032;2022-09-12T07:00:29;13.40;;;6.60;;
40917;SDS011;26644;50.248;19.032;2022-09-12T07:03:32;8.52;;;6.60;;
40917;SDS011;26644;50.248;19.032;2022-09-12T07:06:36;11.35;;;6.40;;
40917;SDS011;26644;50.248;19.032;2022-09-12T07:09:40;13.70;;;5.40;;
40917;SDS011;26644;50.248;19.032;2022-09-12T07:12:42;6.68;;;5.13;;
40917;SDS011;26644;50.248;19.032;2022-09-12T07:15:44;7.72;;;5.57;;
40917;SDS011;26644;50.248;19.032;2022-09-12T07:18:48;8.48;;;4.22;;
40917;SDS011;26644;50.248;19.032;2022-09-12T07:21:51;5.75;;;3.75;;
40917;SDS011;26644;50.248;19.032;2022-09-12T07:24:54;7.00;;;3.45;;
40917;SDS011;26644;50.248;19.032;2022-09-12T07:27:56;8.00;;;3.90;;
40917;SDS011;26644;50.248;19.032;2022-09-12T07:31:03;7.20;;;3.30;;
40917;SDS011;26644;50.248;19.032;2022-09-12T07:34:06;4.20;;;2.65;;
40917;SDS011;26644;50.248;19.032;2022-09-12T07:37:08;4.88;;;3.00;;
40917;SDS011;26644;50.248;19.032;2022-09-12T07:40:12;7.53;;;3.30;;
40917;SDS011;26644;50.248;19.032;2022-09-12T07:43:14;4.35;;;3.00;;
40917;SDS011;26644;50.248;19.032;2022-09-12T07:46:16;7.45;;;2.50;;
40917;SDS011;26644;50.248;19.032;2022-09-12T07:49:18;4.00;;;3.00;;
40917;SDS011;26644;50.248;19.032;2022-09-12T07:52:20;7.07;;;2.60;;
40917;SDS011;26644;50.248;19.032;2022-09-12T07:55:23;5.68;;;2.63;;
40917;SDS011;26644;50.248;19.032;2022-09-12T07:58:25;8.38;;;2.65;;
40917;SDS011;26644;50.248;19.032;2022-09-12T08:01:26;3.83;;;2.55;;
40917;SDS011;26644;50.248;19.032;2022-09-12T08:04:29;5.75;;;2.42;;
40917;SDS011;26644;50.248;19.032;2022-09-12T08:07:30;4.32;;;2.50;;
40917;SDS011;26644;50.248;19.032;2022-09-12T08:10:34;5.63;;;2.65;;
40917;SDS011;26644;50.248;19.032;2022-09-12T08:13:37;6.10;;;2.20;;
40917;SDS011;26644;50.248;19.032;2022-09-12T08:16:40;3.85;;;2.00;;
40917;SDS011;26644;50.248;19.032;2022-09-12T08:19:41;3.58;;;2.58;;
40917;SDS011;26644;50.248;19.032;2022-09-12T08:22:44;6.45;;;2.55;;
40917;SDS011;26644;50.248;19.032;2022-09-12T08:25:47;5.55;;;2.80;;
40917;SDS011;26644;50.248;19.032;2022-09-12T08:28:49;5.22;;;3.03;;
40917;SDS011;26644;50.248;19.032;2022-09-12T08:31:52;5.13;;;2.55;;
40917;SDS011;26644;50.248;19.032;2022-09-12T08:34:54;4.30;;;2.60;;
40917;SDS011;26644;50.248;19.032;2022-09-12T08:37:56;5.28;;;2.10;;
40917;SDS011;26644;50.248;19.032;2022-09-12T08:41:01;5.18;;;2.30;;
40917;SDS011;26644;50.248;19.032;2022-09-12T08:44:10;8.43;;;2.55;;
40917;SDS011;26644;50.248;19.032;2022-09-12T08:47:29;1.30;;;1.20;;
40917;SDS011;26644;50.248;19.032;2022-09-12T08:50:33;4.35;;;1.92;;
40917;SDS011;26644;50.248;19.032;2022-09-12T08:53:36;3.42;;;1.88;;
40917;SDS011;26644;50.248;19.032;2022-09-12T08:56:39;2.17;;;1.48;;
40917;SDS011;26644;50.248;19.032;2022-09-12T08:59:42;5.20;;;1.50;;
40917;SDS011;26644;50.248;19.032;2022-09-12T09:02:58;5.47;;;1.75;;
40917;SDS011;26644;50.248;19.032;2022-09-12T09:06:30;3.55;;;2.15;;
40917;SDS011;26644;50.248;19.032;2022-09-12T09:09:48;6.22;;;1.88;;
40917;SDS011;26644;50.248;19.032;2022-09-12T09:13:03;6.60;;;2.35;;
40917;SDS011;26644;50.248;19.032;2022-09-12T09:16:38;2.00;;;1.80;;
40917;SDS011;26644;50.248;19.032;2022-09-12T09:19:43;6.85;;;1.92;;
40917;SDS011;26644;50.248;19.032;2022-09-12T09:22:51;6.18;;;2.83;;
40917;SDS011;26644;50.248;19.032;2022-09-12T09:25:58;4.80;;;2.83;;
40917;SDS011;26644;50.248;19.032;2022-09-12T09:29:10;4.22;;;2.00;;
40917;SDS011;26644;50.248;19.032;2022-09-12T09:32:17;3.30;;;2.30;;
40917;SDS011;26644;50.248;19.032;2022-09-12T09:35:26;5.43;;;2.25;;
40917;SDS011;26644;50.248;19.032;2022-09-12T09:41:45;5.30;;;2.00;;
40917;SDS011;26644;50.248;19.032;2022-09-12T09:44:55;2.65;;;1.70;;
40917;SDS011;26644;50.248;19.032;2022-09-12T09:48:02;3.45;;;1.60;;
40917;SDS011;26644;50.248;19.032;2022-09-12T09:51:22;2.97;;;1.90;;
40917;SDS011;26644;50.248;19.032;2022-09-12T09:54:28;4.47;;;2.00;;
40917;SDS011;26644;50.248;19.032;2022-09-12T09:57:42;5.50;;;2.08;;
40917;SDS011;26644;50.248;19.032;2022-09-12T10:00:47;3.85;;;2.08;;
40917;SDS011;26644;50.248;19.032;2022-09-12T10:03:49;3.15;;;2.17;;
40917;SDS011;26644;50.248;19.032;2022-09-12T10:06:53;3.35;;;1.77;;
40917;SDS011;26644;50.248;19.032;2022-09-12T10:10:04;4.43;;;2.10;;
40917;SDS011;26644;50.248;19.032;2022-09-12T10:13:20;5.30;;;2.05;;
40917;SDS011;26644;50.248;19.032;2022-09-12T10:16:27;4.45;;;2.25;;
40917;SDS011;26644;50.248;19.032;2022-09-12T10:19:34;5.03;;;3.13;;
40917;SDS011;26644;50.248;19.032;2022-09-12T10:22:37;8.25;;;2.78;;
40917;SDS011;26644;50.248;19.032;2022-09-12T10:25:39;4.20;;;2.30;;
40917;SDS011;26644;50.248;19.032;2022-09-12T10:28:42;2.63;;;1.85;;
40917;SDS011;26644;50.248;19.032;2022-09-12T10:31:49;4.65;;;2.65;;
40917;SDS011;26644;50.248;19.032;2022-09-12T10:34:55;3.53;;;2.10;;
40917;SDS011;26644;50.248;19.032;2022-09-12T10:38:00;3.83;;;2.10;;
40917;SDS011;26644;50.248;19.032;2022-09-12T10:41:05;2.28;;;1.83;;
40917;SDS011;26644;50.248;19.032;2022-09-12T10:44:12;3.20;;;2.50;;
40917;SDS011;26644;50.248;19.032;2022-09-12T10:47:21;4.78;;;2.35;;
40917;SDS011;26644;50.248;19.032;2022-09-12T10:50:29;6.65;;;2.40;;
40917;SDS011;26644;50.248;19.032;2022-09-12T10:53:38;4.32;;;2.33;;
40917;SDS011;26644;50.248;19.032;2022-09-12T10:56:43;4.70;;;1.85;;
40917;SDS011;26644;50.248;19.032;2022-09-12T10:59:57;3.75;;;1.90;;
40917;SDS011;26644;50.248;19.032;2022-09-12T11:03:13;2.83;;;2.38;;
40917;SDS011;26644;50.248;19.032;2022-09-12T11:06:17;3.03;;;1.83;;
40917;SDS011;26644;50.248;19.032;2022-09-12T11:09:29;4.32;;;1.73;;
40917;SDS011;26644;50.248;19.032;2022-09-12T11:12:37;4.30;;;1.83;;
40917;SDS011;26644;50.248;19.032;2022-09-12T11:15:53;5.35;;;2.28;;
40917;SDS011;26644;50.248;19.032;2022-09-12T11:19:20;4.90;;;2.20;;
40917;SDS011;26644;50.248;19.032;2022-09-12T11:22:35;4.72;;;1.77;;
40917;SDS011;26644;50.248;19.032;2022-09-12T11:25:55;5.45;;;2.13;;
40917;SDS011;26644;50.248;19.032;2022-09-12T11:29:05;3.03;;;2.08;;
40917;SDS011;26644;50.248;19.032;2022-09-12T11:32:30;4.43;;;1.95;;
40917;SDS011;26644;50.248;19.032;2022-09-12T11:35:46;7.13;;;2.60;;
40917;SDS011;26644;50.248;19.032;2022-09-12T11:38:50;5.15;;;2.42;;
40917;SDS011;26644;50.248;19.032;2022-09-12T11:42:01;2.70;;;2.03;;
40917;SDS011;26644;50.248;19.032;2022-09-12T11:45:08;4.45;;;2.47;;
40917;SDS011;26644;50.248;19.032;2022-09-12T11:48:28;3.27;;;2.23;;
40917;SDS011;26644;50.248;19.032;2022-09-12T11:51:40;3.75;;;2.05;;
40917;SDS011;26644;50.248;19.032;2022-09-12T11:54:47;4.63;;;2.70;;
40917;SDS011;26644;50.248;19.032;2022-09-12T11:57:58;6.07;;;2.20;;
40917;SDS011;26644;50.248;19.032;2022-09-12T12:01:02;2.65;;;1.92;;
40917;SDS011;26644;50.248;19.032;2022-09-12T12:04:12;4.43;;;2.08;;
40917;SDS011;26644;50.248;19.032;2022-09-12T12:07:19;5.75;;;2.17;;
40917;SDS011;26644;50.248;19.032;2022-09-12T12:10:25;4.88;;;2.17;;
40917;SDS011;26644;50.248;19.032;2022-09-12T12:13:33;6.07;;;2.35;;
40917;SDS011;26644;50.248;19.032;2022-09-12T12:16:38;8.18;;;2.50;;
40917;SDS011;26644;50.248;19.032;2022-09-12T12:19:41;4.97;;;1.98;;
40917;SDS011;26644;50.248;19.032;2022-09-12T12:22:51;6.55;;;2.80;;
40917;SDS011;26644;50.248;19.032;2022-09-12T12:25:54;4.38;;;2.10;;
40917;SDS011;26644;50.248;19.032;2022-09-12T12:28:58;2.63;;;1.95;;
40917;SDS011;26644;50.248;19.032;2022-09-12T12:32:22;3.33;;;2.25;;
40917;SDS011;26644;50.248;19.032;2022-09-12T12:38:46;4.40;;;2.00;;
40917;SDS011;26644;50.248;19.032;2022-09-12T12:41:48;3.83;;;1.90;;
40917;SDS011;26644;50.248;19.032;2022-09-12T12:44:50;3.60;;;1.80;;
40917;SDS011;26644;50.248;19.032;2022-09-12T12:47:52;3.25;;;2.28;;
40917;SDS011;26644;50.248;19.032;2022-09-12T12:57:55;4.10;;;1.80;;
40917;SDS011;26644;50.248;19.032;2022-09-12T13:01:02;2.28;;;1.98;;
40917;SDS011;26644;50.248;19.032;2022-09-12T13:04:11;5.40;;;1.80;;
40917;SDS011;26644;50.248;19.032;2022-09-12T13:07:20;6.50;;;2.20;;
40917;SDS011;26644;50.248;19.032;2022-09-12T13:10:29;4.82;;;2.67;;
40917;SDS011;26644;50.248;19.032;2022-09-12T13:13:33;4.93;;;2.40;;
40917;SDS011;26644;50.248;19.032;2022-09-12T13:16:39;3.40;;;1.83;;
40917;SDS011;26644;50.248;19.032;2022-09-12T13:20:01;5.75;;;2.40;;
40917;SDS011;26644;50.248;19.032;2022-09-12T13:23:22;2.40;;;1.80;;
40917;SDS011;26644;50.248;19.032;2022-09-12T13:26:26;7.00;;;2.35;;
40917;SDS011;26644;50.248;19.032;2022-09-12T13:29:33;5.30;;;2.22;;
40917;SDS011;26644;50.248;19.032;2022-09-12T13:32:35;5.80;;;2.28;;
40917;SDS011;26644;50.248;19.032;2022-09-12T13:35:39;3.05;;;1.95;;
40917;SDS011;26644;50.248;19.032;2022-09-12T13:38:53;2.65;;;1.83;;
40917;SDS011;26644;50.248;19.032;2022-09-12T13:45:38;4.57;;;2.45;;
40917;SDS011;26644;50.248;19.032;2022-09-12T13:48:40;3.38;;;1.80;;
40917;SDS011;26644;50.248;19.032;2022-09-12T13:51:43;6.85;;;2.00;;
40917;SDS011;26644;50.248;19.032;2022-09-12T13:54:45;3.30;;;1.88;;
40917;SDS011;26644;50.248;19.032;2022-09-12T13:57:56;3.10;;;2.10;;
40917;SDS011;26644;50.248;19.032;2022-09-12T14:01:00;4.47;;;2.10;;
40917;SDS011;26644;50.248;19.032;2022-09-12T14:04:09;5.38;;;2.70;;
40917;SDS011;26644;50.248;19.032;2022-09-12T14:07:36;5.72;;;2.80;;
40917;SDS011;26644;50.248;19.032;2022-09-12T14:10:42;5.68;;;3.10;;
40917;SDS011;26644;50.248;19.032;2022-09-12T14:13:48;4.72;;;2.67;;
40917;SDS011;26644;50.248;19.032;2022-09-12T14:16:52;8.65;;;2.72;;
40917;SDS011;26644;50.248;19.032;2022-09-12T14:19:54;4.82;;;2.80;;
40917;SDS011;26644;50.248;19.032;2022-09-12T14:23:00;4.47;;;2.67;;
40917;SDS011;26644;50.248;19.032;2022-09-12T14:26:04;4.60;;;2.70;;
40917;SDS011;26644;50.248;19.032;2022-09-12T14:29:12;3.92;;;2.25;;
40917;SDS011;26644;50.248;19.032;2022-09-12T14:32:19;4.95;;;2.80;;
40917;SDS011;26644;50.248;19.032;2022-09-12T14:35:23;5.38;;;3.10;;
40917;SDS011;26644;50.248;19.032;2022-09-12T14:38:29;4.82;;;3.05;;
40917;SDS011;26644;50.248;19.032;2022-09-12T14:41:37;5.07;;;2.87;;
40917;SDS011;26644;50.248;19.032;2022-09-12T14:44:42;4.63;;;3.28;;
40917;SDS011;26644;50.248;19.032;2022-09-12T14:47:54;7.15;;;3.70;;
40917;SDS011;26644;50.248;19.032;2022-09-12T14:50:57;12.70;;;6.35;;
40917;SDS011;26644;50.248;19.032;2022-09-12T14:54:00;11.75;;;5.45;;
40917;SDS011;26644;50.248;19.032;2022-09-12T14:57:03;5.95;;;3.65;;
40917;SDS011;26644;50.248;19.032;2022-09-12T15:00:18;8.25;;;3.85;;
40917;SDS011;26644;50.248;19.032;2022-09-12T15:03:24;10.43;;;4.18;;
40917;SDS011;26644;50.248;19.032;2022-09-12T15:06:28;6.25;;;3.05;;
40917;SDS011;26644;50.248;19.032;2022-09-12T15:09:30;6.22;;;3.53;;
40917;SDS011;26644;50.248;19.032;2022-09-12T15:12:33;3.30;;;2.40;;
40917;SDS011;26644;50.248;19.032;2022-09-12T15:15:36;9.80;;;3.58;;
40917;SDS011;26644;50.248;19.032;2022-09-12T15:18:39;9.18;;;4.25;;
40917;SDS011;26644;50.248;19.032;2022-09-12T15:21:41;7.63;;;3.50;;
40917;SDS011;26644;50.248;19.032;2022-09-12T15:24:43;4.45;;;2.70;;
40917;SDS011;26644;50.248;19.032;2022-09-12T15:27:45;6.00;;;3.22;;
40917;SDS011;26644;50.248;19.032;2022-09-12T15:30:50;5.00;;;3.00;;
40917;SDS011;26644;50.248;19.032;2022-09-12T15:33:53;7.85;;;3.13;;
40917;SDS011;26644;50.248;19.032;2022-09-12T15:36:56;7.38;;;3.13;;
40917;SDS011;26644;50.248;19.032;2022-09-12T15:39:58;9.52;;;3.58;;
40917;SDS011;26644;50.248;19.032;2022-09-12T15:43:00;6.97;;;2.70;;
40917;SDS011;26644;50.248;19.032;2022-09-12T15:46:03;4.55;;;3.00;;
40917;SDS011;26644;50.248;19.032;2022-09-12T15:49:06;3.13;;;2.72;;
40917;SDS011;26644;50.248;19.032;2022-09-12T15:52:08;7.15;;;2.58;;
40917;SDS011;26644;50.248;19.032;2022-09-12T15:55:16;4.32;;;2.60;;
40917;SDS011;26644;50.248;19.032;2022-09-12T15:58:19;5.25;;;3.10;;
40917;SDS011;26644;50.248;19.032;2022-09-12T16:01:22;7.25;;;2.92;;
40917;SDS011;26644;50.248;19.032;2022-09-12T16:04:25;5.43;;;2.50;;
40917;SDS011;26644;50.248;19.032;2022-09-12T16:07:28;5.05;;;2.70;;
40917;SDS011;26644;50.248;19.032;2022-09-12T16:10:30;5.88;;;3.47;;
40917;SDS011;26644;50.248;19.032;2022-09-12T16:13:32;3.83;;;2.92;;
40917;SDS011;26644;50.248;19.032;2022-09-12T16:16:35;6.00;;;3.67;;
40917;SDS011;26644;50.248;19.032;2022-09-12T16:19:37;5.43;;;3.42;;
40917;SDS011;26644;50.248;19.032;2022-09-12T16:22:39;7.00;;;3.47;;
40917;SDS011;26644;50.248;19.032;2022-09-12T16:25:41;7.03;;;3.55;;
40917;SDS011;26644;50.248;19.032;2022-09-12T16:28:43;5.78;;;3.17;;
40917;SDS011;26644;50.248;19.032;2022-09-12T16:31:46;4.93;;;3.40;;
40917;SDS011;26644;50.248;19.032;2022-09-12T16:34:48;5.10;;;3.38;;
40917;SDS011;26644;50.248;19.032;2022-09-12T16:37:50;4.68;;;2.85;;
40917;SDS011;26644;50.248;19.032;2022-09-12T16:40:57;4.10;;;2.97;;
40917;SDS011;26644;50.248;19.032;2022-09-12T16:44:00;4.78;;;3.22;;
40917;SDS011;26644;50.248;19.032;2022-09-12T16:47:03;6.72;;;3.53;;
40917;SDS011;26644;50.248;19.032;2022-09-12T16:50:06;7.18;;;3.03;;
40917;SDS011;26644;50.248;19.032;2022-09-12T16:53:08;4.28;;;3.15;;
40917;SDS011;26644;50.248;19.032;2022-09-12T16:56:11;7.53;;;3.30;;
40917;SDS011;26644;50.248;19.032;2022-09-12T16:59:13;5.72;;;3.20;;
40917;SDS011;26644;50.248;19.032;2022-09-12T17:02:17;7.13;;;3.78;;
40917;SDS011;26644;50.248;19.032;2022-09-12T17:05:19;8.27;;;3.65;;
40917;SDS011;26644;50.248;19.032;2022-09-12T17:08:21;4.30;;;3.33;;
40917;SDS011;26644;50.248;19.032;2022-09-12T17:11:24;14.18;;;4.28;;
40917;SDS011;26644;50.248;19.032;2022-09-12T17:14:29;5.95;;;4.28;;
40917;SDS011;26644;50.248;19.032;2022-09-12T17:17:33;11.13;;;5.55;;
40917;SDS011;26644;50.248;19.032;2022-09-12T17:20:34;9.55;;;5.75;;
40917;SDS011;26644;50.248;19.032;2022-09-12T17:23:37;10.95;;;6.22;;
40917;SDS011;26644;50.248;19.032;2022-09-12T17:26:39;11.10;;;6.47;;
40917;SDS011;26644;50.248;19.032;2022-09-12T17:29:41;9.93;;;6.60;;
40917;SDS011;26644;50.248;19.032;2022-09-12T17:32:44;13.68;;;6.35;;
40917;SDS011;26644;50.248;19.032;2022-09-12T17:35:46;12.48;;;6.75;;
40917;SDS011;26644;50.248;19.032;2022-09-12T17:38:48;15.68;;;6.30;;
40917;SDS011;26644;50.248;19.032;2022-09-12T17:41:51;9.82;;;5.80;;
40917;SDS011;26644;50.248;19.032;2022-09-12T17:44:56;8.45;;;5.93;;
40917;SDS011;26644;50.248;19.032;2022-09-12T17:48:00;9.32;;;6.10;;
40917;SDS011;26644;50.248;19.032;2022-09-12T17:51:06;8.93;;;5.65;;
40917;SDS011;26644;50.248;19.032;2022-09-12T17:54:09;9.65;;;5.78;;
40917;SDS011;26644;50.248;19.032;2022-09-12T17:57:15;10.55;;;6.43;;
40917;SDS011;26644;50.248;19.032;2022-09-12T18:00:17;12.18;;;6.28;;
40917;SDS011;26644;50.248;19.032;2022-09-12T18:03:41;9.35;;;5.53;;
40917;SDS011;26644;50.248;19.032;2022-09-12T18:06:42;10.02;;;5.53;;
40917;SDS011;26644;50.248;19.032;2022-09-12T18:09:47;9.23;;;5.65;;
40917;SDS011;26644;50.248;19.032;2022-09-12T18:12:51;10.65;;;6.00;;
40917;SDS011;26644;50.248;19.032;2022-09-12T18:15:53;11.48;;;5.80;;
40917;SDS011;26644;50.248;19.032;2022-09-12T18:18:56;10.15;;;6.35;;
40917;SDS011;26644;50.248;19.032;2022-09-12T18:22:01;13.20;;;6.72;;
40917;SDS011;26644;50.248;19.032;2022-09-12T18:25:05;11.95;;;7.22;;
40917;SDS011;26644;50.248;19.032;2022-09-12T18:28:08;11.52;;;7.50;;